sensor_id;sensor_type;location;lat;lon;timestamp;P1;durP1;ratioP1;P2;durP2;ratioP2
42200;SDS011;27869;51.442;7.540;2023-03-01T00:01:36;14.80;;;4.90;;
42200;SDS011;27869;51.442;7.540;2023-03-01T00:04:03;13.27;;;4.82;;
42200;SDS011;27869;51.442;7.540;2023-03-01T00:06:33;13.88;;;4.80;;
42200;SDS011;27869;51.442;7.540;2023-03-01T00:09:00;15.20;;;5.05;;
42200;SDS011;27869;51.442;7.540;2023-03-01T00:11:28;15.88;;;5.45;;
42200;SDS011;27869;51.442;7.540;2023-03-01T00:16:25;13.95;;;5.13;;
42200;SDS011;27869;51.442;7.540;2023-03-01T00:18:54;17.77;;;5.43;;
42200;SDS011;27869;51.442;7.540;2023-03-01T00:21:21;14.23;;;4.97;;
42200;SDS011;27869;51.442;7.540;2023-03-01T00:23:49;14.68;;;4.78;;
42200;SDS011;27869;51.442;7.540;2023-03-01T00:26:17;13.80;;;5.15;;
42200;SDS011;27869;51.442;7.540;2023-03-01T00:28:46;14.00;;;4.85;;
42200;SDS011;27869;51.442;7.540;2023-03-01T00:31:14;14.52;;;4.47;;
42200;SDS011;27869;51.442;7.540;2023-03-01T00:33:42;12.35;;;4.78;;
42200;SDS011;27869;51.442;7.540;2023-03-01T00:36:10;17.13;;;5.22;;
42200;SDS011;27869;51.442;7.540;2023-03-01T00:38:39;14.93;;;4.97;;
42200;SDS011;27869;51.442;7.540;2023-03-01T00:41:07;12.60;;;4.60;;
42200;SDS011;27869;51.442;7.540;2023-03-01T00:43:35;14.27;;;4.30;;
42200;SDS011;27869;51.442;7.540;2023-03-01T00:46:04;13.07;;;4.72;;
42200;SDS011;27869;51.442;7.540;2023-03-01T00:48:32;12.88;;;4.35;;
42200;SDS011;27869;51.442;7.540;2023-03-01T00:51:03;13.40;;;4.57;;
42200;SDS011;27869;51.442;7.540;2023-03-01T00:53:31;12.73;;;4.45;;
42200;SDS011;27869;51.442;7.540;2023-03-01T00:55:58;12.40;;;4.38;;
42200;SDS011;27869;51.442;7.540;2023-03-01T00:58:25;13.60;;;4.60;;
42200;SDS011;27869;51.442;7.540;2023-03-01T01:00:52;12.55;;;4.60;;
42200;SDS011;27869;51.442;7.540;2023-03-01T01:03:21;13.48;;;4.55;;
42200;SDS011;27869;51.442;7.540;2023-03-01T01:05:49;13.43;;;4.55;;
42200;SDS011;27869;51.442;7.540;2023-03-01T01:08:16;13.75;;;5.00;;
42200;SDS011;27869;51.442;7.540;2023-03-01T01:10:44;14.52;;;4.75;;
42200;SDS011;27869;51.442;7.540;2023-03-01T01:13:11;14.00;;;4.07;;
42200;SDS011;27869;51.442;7.540;2023-03-01T01:15:39;16.80;;;5.57;;
42200;SDS011;27869;51.442;7.540;2023-03-01T01:18:06;15.13;;;4.85;;
42200;SDS011;27869;51.442;7.540;2023-03-01T01:20:36;15.43;;;4.70;;
42200;SDS011;27869;51.442;7.540;2023-03-01T01:23:04;14.48;;;5.05;;
42200;SDS011;27869;51.442;7.540;2023-03-01T01:25:34;12.50;;;4.68;;
42200;SDS011;27869;51.442;7.540;2023-03-01T01:28:01;14.32;;;4.75;;
42200;SDS011;27869;51.442;7.540;2023-03-01T01:30:29;14.65;;;4.93;;
42200;SDS011;27869;51.442;7.540;2023-03-01T01:32:56;13.35;;;4.93;;
42200;SDS011;27869;51.442;7.540;2023-03-01T01:35:22;13.38;;;4.63;;
42200;SDS011;27869;51.442;7.540;2023-03-01T01:37:51;15.93;;;5.18;;
42200;SDS011;27869;51.442;7.540;2023-03-01T01:40:18;14.77;;;5.15;;
42200;SDS011;27869;51.442;7.540;2023-03-01T01:42:45;15.52;;;4.70;;
42200;SDS011;27869;51.442;7.540;2023-03-01T01:45:24;14.07;;;4.72;;
42200;SDS011;27869;51.442;7.540;2023-03-01T01:47:54;13.35;;;4.78;;
42200;SDS011;27869;51.442;7.540;2023-03-01T01:50:25;16.45;;;4.80;;
42200;SDS011;27869;51.442;7.540;2023-03-01T01:52:53;13.60;;;4.90;;
42200;SDS011;27869;51.442;7.540;2023-03-01T01:55:21;13.30;;;4.90;;
42200;SDS011;27869;51.442;7.540;2023-03-01T01:57:52;13.57;;;4.63;;
42200;SDS011;27869;51.442;7.540;2023-03-01T02:00:22;13.52;;;5.07;;
42200;SDS011;27869;51.442;7.540;2023-03-01T02:03:01;13.82;;;5.20;;
42200;SDS011;27869;51.442;7.540;2023-03-01T02:05:32;12.60;;;4.85;;
42200;SDS011;27869;51.442;7.540;2023-03-01T02:08:04;13.57;;;5.00;;
42200;SDS011;27869;51.442;7.540;2023-03-01T02:10:32;13.38;;;4.47;;
42200;SDS011;27869;51.442;7.540;2023-03-01T02:13:00;13.77;;;5.18;;
42200;SDS011;27869;51.442;7.540;2023-03-01T02:15:31;13.75;;;4.75;;
42200;SDS011;27869;51.442;7.540;2023-03-01T02:18:00;21.13;;;5.07;;
42200;SDS011;27869;51.442;7.540;2023-03-01T02:20:30;14.38;;;5.20;;
42200;SDS011;27869;51.442;7.540;2023-03-01T02:23:04;12.57;;;4.40;;
42200;SDS011;27869;51.442;7.540;2023-03-01T02:25:33;12.75;;;4.90;;
42200;SDS011;27869;51.442;7.540;2023-03-01T02:28:08;15.80;;;5.28;;
42200;SDS011;27869;51.442;7.540;2023-03-01T02:30:47;13.95;;;5.55;;
42200;SDS011;27869;51.442;7.540;2023-03-01T02:33:33;14.30;;;5.38;;
42200;SDS011;27869;51.442;7.540;2023-03-01T02:36:03;13.68;;;5.10;;
42200;SDS011;27869;51.442;7.540;2023-03-01T02:40:59;15.25;;;4.88;;
42200;SDS011;27869;51.442;7.540;2023-03-01T02:43:29;14.35;;;5.03;;
42200;SDS011;27869;51.442;7.540;2023-03-01T02:45:57;15.35;;;5.47;;
42200;SDS011;27869;51.442;7.540;2023-03-01T02:48:37;15.57;;;6.10;;
42200;SDS011;27869;51.442;7.540;2023-03-01T02:51:11;13.85;;;5.05;;
42200;SDS011;27869;51.442;7.540;2023-03-01T02:53:55;14.05;;;5.28;;
42200;SDS011;27869;51.442;7.540;2023-03-01T02:56:27;16.92;;;5.43;;
42200;SDS011;27869;51.442;7.540;2023-03-01T02:58:57;14.40;;;5.30;;
42200;SDS011;27869;51.442;7.540;2023-03-01T03:01:26;14.57;;;5.47;;
42200;SDS011;27869;51.442;7.540;2023-03-01T03:04:02;15.77;;;5.65;;
42200;SDS011;27869;51.442;7.540;2023-03-01T03:06:32;15.55;;;5.55;;
42200;SDS011;27869;51.442;7.540;2023-03-01T03:08:59;14.10;;;5.82;;
42200;SDS011;27869;51.442;7.540;2023-03-01T03:11:26;16.30;;;6.28;;
42200;SDS011;27869;51.442;7.540;2023-03-01T03:13:53;15.25;;;5.40;;
42200;SDS011;27869;51.442;7.540;2023-03-01T03:16:22;15.27;;;5.32;;
42200;SDS011;27869;51.442;7.540;2023-03-01T03:18:49;17.27;;;5.20;;
42200;SDS011;27869;51.442;7.540;2023-03-01T03:21:17;14.98;;;6.10;;
42200;SDS011;27869;51.442;7.540;2023-03-01T03:23:43;14.68;;;5.18;;
42200;SDS011;27869;51.442;7.540;2023-03-01T03:26:10;16.17;;;5.63;;
42200;SDS011;27869;51.442;7.540;2023-03-01T03:28:40;14.85;;;5.18;;
42200;SDS011;27869;51.442;7.540;2023-03-01T03:31:07;15.63;;;5.30;;
42200;SDS011;27869;51.442;7.540;2023-03-01T03:33:35;14.40;;;5.90;;
42200;SDS011;27869;51.442;7.540;2023-03-01T03:36:03;17.08;;;5.55;;
42200;SDS011;27869;51.442;7.540;2023-03-01T03:38:30;13.35;;;5.00;;
42200;SDS011;27869;51.442;7.540;2023-03-01T03:40:59;16.15;;;5.82;;
42200;SDS011;27869;51.442;7.540;2023-03-01T03:43:28;14.80;;;5.55;;
42200;SDS011;27869;51.442;7.540;2023-03-01T03:45:56;14.82;;;5.50;;
42200;SDS011;27869;51.442;7.540;2023-03-01T03:48:23;14.70;;;5.72;;
42200;SDS011;27869;51.442;7.540;2023-03-01T03:50:53;14.27;;;5.43;;
42200;SDS011;27869;51.442;7.540;2023-03-01T03:53:22;16.10;;;6.28;;
42200;SDS011;27869;51.442;7.540;2023-03-01T03:55:50;15.73;;;5.53;;
42200;SDS011;27869;51.442;7.540;2023-03-01T03:58:17;16.88;;;5.65;;
42200;SDS011;27869;51.442;7.540;2023-03-01T04:00:46;16.10;;;5.50;;
42200;SDS011;27869;51.442;7.540;2023-03-01T04:03:14;15.35;;;5.47;;
42200;SDS011;27869;51.442;7.540;2023-03-01T04:05:43;15.52;;;5.78;;
42200;SDS011;27869;51.442;7.540;2023-03-01T04:08:13;14.57;;;6.07;;
42200;SDS011;27869;51.442;7.540;2023-03-01T04:10:40;14.73;;;5.93;;
42200;SDS011;27869;51.442;7.540;2023-03-01T04:13:10;18.45;;;5.82;;
42200;SDS011;27869;51.442;7.540;2023-03-01T04:15:38;19.40;;;6.03;;
42200;SDS011;27869;51.442;7.540;2023-03-01T04:18:06;19.70;;;6.78;;
42200;SDS011;27869;51.442;7.540;2023-03-01T04:20:35;15.38;;;6.25;;
42200;SDS011;27869;51.442;7.540;2023-03-01T04:23:02;17.05;;;6.63;;
42200;SDS011;27869;51.442;7.540;2023-03-01T04:25:40;14.98;;;5.80;;
42200;SDS011;27869;51.442;7.540;2023-03-01T04:28:08;17.17;;;6.50;;
42200;SDS011;27869;51.442;7.540;2023-03-01T04:30:36;17.08;;;5.80;;
42200;SDS011;27869;51.442;7.540;2023-03-01T04:33:03;15.93;;;6.18;;
42200;SDS011;27869;51.442;7.540;2023-03-01T04:35:32;15.23;;;6.20;;
42200;SDS011;27869;51.442;7.540;2023-03-01T04:37:59;16.20;;;6.13;;
42200;SDS011;27869;51.442;7.540;2023-03-01T04:40:26;15.43;;;6.25;;
42200;SDS011;27869;51.442;7.540;2023-03-01T04:42:54;18.08;;;5.88;;
42200;SDS011;27869;51.442;7.540;2023-03-01T04:45:21;14.38;;;5.97;;
42200;SDS011;27869;51.442;7.540;2023-03-01T04:47:48;15.30;;;6.00;;
42200;SDS011;27869;51.442;7.540;2023-03-01T04:50:17;16.30;;;6.30;;
42200;SDS011;27869;51.442;7.540;2023-03-01T04:52:47;16.77;;;6.22;;
42200;SDS011;27869;51.442;7.540;2023-03-01T04:55:14;20.90;;;7.20;;
42200;SDS011;27869;51.442;7.540;2023-03-01T04:57:41;17.83;;;7.28;;
42200;SDS011;27869;51.442;7.540;2023-03-01T05:00:11;17.35;;;6.32;;
42200;SDS011;27869;51.442;7.540;2023-03-01T05:02:49;16.38;;;6.38;;
42200;SDS011;27869;51.442;7.540;2023-03-01T05:05:18;17.77;;;7.03;;
42200;SDS011;27869;51.442;7.540;2023-03-01T05:07:50;15.88;;;6.03;;
42200;SDS011;27869;51.442;7.540;2023-03-01T05:10:18;23.00;;;5.97;;
42200;SDS011;27869;51.442;7.540;2023-03-01T05:12:45;19.88;;;7.38;;
42200;SDS011;27869;51.442;7.540;2023-03-01T05:15:13;17.00;;;5.93;;
42200;SDS011;27869;51.442;7.540;2023-03-01T05:17:40;17.10;;;6.07;;
42200;SDS011;27869;51.442;7.540;2023-03-01T05:20:08;18.27;;;6.82;;
42200;SDS011;27869;51.442;7.540;2023-03-01T05:22:36;15.02;;;5.50;;
42200;SDS011;27869;51.442;7.540;2023-03-01T05:25:03;15.80;;;6.22;;
42200;SDS011;27869;51.442;7.540;2023-03-01T05:27:30;16.00;;;6.07;;
42200;SDS011;27869;51.442;7.540;2023-03-01T05:29:57;18.10;;;6.22;;
42200;SDS011;27869;51.442;7.540;2023-03-01T05:32:25;19.08;;;6.85;;
42200;SDS011;27869;51.442;7.540;2023-03-01T05:34:56;17.27;;;6.70;;
42200;SDS011;27869;51.442;7.540;2023-03-01T05:37:22;16.17;;;6.70;;
42200;SDS011;27869;51.442;7.540;2023-03-01T05:39:49;16.08;;;6.68;;
42200;SDS011;27869;51.442;7.540;2023-03-01T05:42:16;16.27;;;6.18;;
42200;SDS011;27869;51.442;7.540;2023-03-01T05:44:43;17.67;;;6.28;;
42200;SDS011;27869;51.442;7.540;2023-03-01T05:47:10;18.27;;;6.80;;
42200;SDS011;27869;51.442;7.540;2023-03-01T05:49:38;17.83;;;6.25;;
42200;SDS011;27869;51.442;7.540;2023-03-01T05:52:05;16.17;;;6.68;;
42200;SDS011;27869;51.442;7.540;2023-03-01T05:54:32;16.00;;;6.35;;
42200;SDS011;27869;51.442;7.540;2023-03-01T05:56:59;22.50;;;7.35;;
42200;SDS011;27869;51.442;7.540;2023-03-01T05:59:26;18.63;;;6.63;;
42200;SDS011;27869;51.442;7.540;2023-03-01T06:01:53;15.30;;;6.57;;
42200;SDS011;27869;51.442;7.540;2023-03-01T06:04:20;18.30;;;7.03;;
42200;SDS011;27869;51.442;7.540;2023-03-01T06:06:48;16.05;;;6.57;;
42200;SDS011;27869;51.442;7.540;2023-03-01T06:09:15;17.77;;;7.00;;
42200;SDS011;27869;51.442;7.540;2023-03-01T06:11:42;19.02;;;6.47;;
42200;SDS011;27869;51.442;7.540;2023-03-01T06:14:09;16.27;;;6.30;;
42200;SDS011;27869;51.442;7.540;2023-03-01T06:16:37;18.23;;;7.18;;
42200;SDS011;27869;51.442;7.540;2023-03-01T06:19:04;17.15;;;6.43;;
42200;SDS011;27869;51.442;7.540;2023-03-01T06:21:31;16.92;;;6.80;;
42200;SDS011;27869;51.442;7.540;2023-03-01T06:23:59;17.95;;;5.88;;
42200;SDS011;27869;51.442;7.540;2023-03-01T06:26:26;17.98;;;6.40;;
42200;SDS011;27869;51.442;7.540;2023-03-01T06:28:53;16.35;;;6.30;;
42200;SDS011;27869;51.442;7.540;2023-03-01T06:31:20;19.55;;;7.47;;
42200;SDS011;27869;51.442;7.540;2023-03-01T06:33:47;18.30;;;7.45;;
42200;SDS011;27869;51.442;7.540;2023-03-01T06:36:14;20.23;;;6.68;;
42200;SDS011;27869;51.442;7.540;2023-03-01T06:38:43;17.90;;;6.80;;
42200;SDS011;27869;51.442;7.540;2023-03-01T06:41:12;15.52;;;6.95;;
42200;SDS011;27869;51.442;7.540;2023-03-01T06:43:38;18.63;;;7.07;;
42200;SDS011;27869;51.442;7.540;2023-03-01T06:46:05;16.73;;;6.70;;
42200;SDS011;27869;51.442;7.540;2023-03-01T06:48:33;16.25;;;6.65;;
42200;SDS011;27869;51.442;7.540;2023-03-01T06:51:00;17.58;;;6.45;;
42200;SDS011;27869;51.442;7.540;2023-03-01T06:53:27;17.08;;;6.78;;
42200;SDS011;27869;51.442;7.540;2023-03-01T06:55:55;20.20;;;6.60;;
42200;SDS011;27869;51.442;7.540;2023-03-01T06:58:23;20.08;;;7.60;;
42200;SDS011;27869;51.442;7.540;2023-03-01T07:00:50;20.77;;;7.90;;
42200;SDS011;27869;51.442;7.540;2023-03-01T07:03:18;17.90;;;7.55;;
42200;SDS011;27869;51.442;7.540;2023-03-01T07:05:45;19.90;;;6.85;;
42200;SDS011;27869;51.442;7.540;2023-03-01T07:08:14;26.88;;;7.95;;
42200;SDS011;27869;51.442;7.540;2023-03-01T07:10:41;18.38;;;7.35;;
42200;SDS011;27869;51.442;7.540;2023-03-01T07:13:08;21.70;;;8.52;;
42200;SDS011;27869;51.442;7.540;2023-03-01T07:15:36;20.98;;;7.47;;
42200;SDS011;27869;51.442;7.540;2023-03-01T07:18:03;19.85;;;8.05;;
42200;SDS011;27869;51.442;7.540;2023-03-01T07:20:30;20.15;;;8.35;;
42200;SDS011;27869;51.442;7.540;2023-03-01T07:22:57;21.02;;;7.70;;
42200;SDS011;27869;51.442;7.540;2023-03-01T07:25:24;19.60;;;7.70;;
42200;SDS011;27869;51.442;7.540;2023-03-01T07:27:51;23.48;;;8.35;;
42200;SDS011;27869;51.442;7.540;2023-03-01T07:30:19;19.17;;;7.57;;
42200;SDS011;27869;51.442;7.540;2023-03-01T07:32:48;23.27;;;8.25;;
42200;SDS011;27869;51.442;7.540;2023-03-01T07:35:15;19.77;;;8.00;;
42200;SDS011;27869;51.442;7.540;2023-03-01T07:37:41;18.45;;;7.43;;
42200;SDS011;27869;51.442;7.540;2023-03-01T07:40:09;20.27;;;8.15;;
42200;SDS011;27869;51.442;7.540;2023-03-01T07:42:37;20.55;;;8.27;;
42200;SDS011;27869;51.442;7.540;2023-03-01T07:45:05;19.63;;;7.82;;
42200;SDS011;27869;51.442;7.540;2023-03-01T07:47:32;24.23;;;7.95;;
42200;SDS011;27869;51.442;7.540;2023-03-01T07:50:01;20.98;;;8.10;;
42200;SDS011;27869;51.442;7.540;2023-03-01T07:52:28;19.77;;;8.25;;
42200;SDS011;27869;51.442;7.540;2023-03-01T07:54:56;20.48;;;7.82;;
42200;SDS011;27869;51.442;7.540;2023-03-01T07:57:23;18.17;;;8.02;;
42200;SDS011;27869;51.442;7.540;2023-03-01T07:59:50;21.77;;;8.80;;
42200;SDS011;27869;51.442;7.540;2023-03-01T08:02:17;19.73;;;8.27;;
42200;SDS011;27869;51.442;7.540;2023-03-01T08:04:44;23.60;;;7.35;;
42200;SDS011;27869;51.442;7.540;2023-03-01T08:07:12;19.90;;;7.30;;
42200;SDS011;27869;51.442;7.540;2023-03-01T08:09:39;21.63;;;7.72;;
42200;SDS011;27869;51.442;7.540;2023-03-01T08:12:06;17.55;;;7.10;;
42200;SDS011;27869;51.442;7.540;2023-03-01T08:14:33;18.98;;;7.57;;
42200;SDS011;27869;51.442;7.540;2023-03-01T08:17:00;19.58;;;7.00;;
42200;SDS011;27869;51.442;7.540;2023-03-01T08:19:28;23.33;;;7.72;;
42200;SDS011;27869;51.442;7.540;2023-03-01T08:21:55;20.10;;;7.43;;
42200;SDS011;27869;51.442;7.540;2023-03-01T08:24:24;21.23;;;7.97;;
42200;SDS011;27869;51.442;7.540;2023-03-01T08:26:52;18.90;;;7.57;;
42200;SDS011;27869;51.442;7.540;2023-03-01T08:29:18;20.63;;;8.02;;
42200;SDS011;27869;51.442;7.540;2023-03-01T08:31:45;16.30;;;6.65;;
42200;SDS011;27869;51.442;7.540;2023-03-01T08:34:14;20.80;;;7.18;;
42200;SDS011;27869;51.442;7.540;2023-03-01T08:36:43;16.02;;;6.45;;
42200;SDS011;27869;51.442;7.540;2023-03-01T08:39:12;20.25;;;7.05;;
42200;SDS011;27869;51.442;7.540;2023-03-01T08:41:41;18.13;;;7.05;;
42200;SDS011;27869;51.442;7.540;2023-03-01T08:44:09;17.67;;;6.78;;
42200;SDS011;27869;51.442;7.540;2023-03-01T08:46:38;18.35;;;6.38;;
42200;SDS011;27869;51.442;7.540;2023-03-01T08:49:06;15.55;;;6.80;;
42200;SDS011;27869;51.442;7.540;2023-03-01T08:51:34;19.02;;;7.10;;
42200;SDS011;27869;51.442;7.540;2023-03-01T08:54:02;19.10;;;6.82;;
42200;SDS011;27869;51.442;7.540;2023-03-01T08:56:30;17.65;;;6.00;;
42200;SDS011;27869;51.442;7.540;2023-03-01T08:58:58;16.88;;;6.22;;
42200;SDS011;27869;51.442;7.540;2023-03-01T09:01:25;15.95;;;6.35;;
42200;SDS011;27869;51.442;7.540;2023-03-01T09:03:53;18.27;;;7.28;;
42200;SDS011;27869;51.442;7.540;2023-03-01T09:06:19;21.05;;;6.50;;
42200;SDS011;27869;51.442;7.540;2023-03-01T09:08:47;17.83;;;6.70;;
42200;SDS011;27869;51.442;7.540;2023-03-01T09:11:16;18.27;;;6.93;;
42200;SDS011;27869;51.442;7.540;2023-03-01T09:13:44;17.63;;;6.55;;
42200;SDS011;27869;51.442;7.540;2023-03-01T09:16:14;18.67;;;6.03;;
42200;SDS011;27869;51.442;7.540;2023-03-01T09:18:42;15.02;;;5.95;;
42200;SDS011;27869;51.442;7.540;2023-03-01T09:21:13;17.35;;;6.20;;
42200;SDS011;27869;51.442;7.540;2023-03-01T09:23:42;17.92;;;6.03;;
42200;SDS011;27869;51.442;7.540;2023-03-01T09:26:11;14.93;;;6.40;;
42200;SDS011;27869;51.442;7.540;2023-03-01T09:28:38;17.23;;;6.07;;
42200;SDS011;27869;51.442;7.540;2023-03-01T09:31:06;15.32;;;5.65;;
42200;SDS011;27869;51.442;7.540;2023-03-01T09:33:34;16.75;;;5.88;;
42200;SDS011;27869;51.442;7.540;2023-03-01T09:36:02;16.05;;;5.40;;
42200;SDS011;27869;51.442;7.540;2023-03-01T09:38:32;18.08;;;6.20;;
42200;SDS011;27869;51.442;7.540;2023-03-01T09:41:00;16.90;;;5.57;;
42200;SDS011;27869;51.442;7.540;2023-03-01T09:43:29;15.65;;;5.40;;
42200;SDS011;27869;51.442;7.540;2023-03-01T09:46:06;13.90;;;4.78;;
42200;SDS011;27869;51.442;7.540;2023-03-01T09:48:38;15.05;;;5.13;;
42200;SDS011;27869;51.442;7.540;2023-03-01T09:51:12;14.73;;;4.72;;
42200;SDS011;27869;51.442;7.540;2023-03-01T09:53:41;14.82;;;4.90;;
42200;SDS011;27869;51.442;7.540;2023-03-01T09:56:11;15.15;;;4.50;;
42200;SDS011;27869;51.442;7.540;2023-03-01T09:58:46;13.20;;;4.57;;
42200;SDS011;27869;51.442;7.540;2023-03-01T10:01:22;13.80;;;4.78;;
42200;SDS011;27869;51.442;7.540;2023-03-01T10:06:56;14.32;;;4.57;;
42200;SDS011;27869;51.442;7.540;2023-03-01T10:09:32;13.27;;;4.80;;
42200;SDS011;27869;51.442;7.540;2023-03-01T10:12:01;12.57;;;3.42;;
42200;SDS011;27869;51.442;7.540;2023-03-01T10:14:32;13.57;;;4.03;;
42200;SDS011;27869;51.442;7.540;2023-03-01T10:17:02;14.68;;;4.40;;
42200;SDS011;27869;51.442;7.540;2023-03-01T10:19:33;13.18;;;4.35;;
42200;SDS011;27869;51.442;7.540;2023-03-01T10:22:08;11.80;;;4.15;;
42200;SDS011;27869;51.442;7.540;2023-03-01T10:24:40;16.10;;;5.18;;
42200;SDS011;27869;51.442;7.540;2023-03-01T10:27:07;14.05;;;4.72;;
42200;SDS011;27869;51.442;7.540;2023-03-01T10:29:42;13.18;;;4.32;;
42200;SDS011;27869;51.442;7.540;2023-03-01T10:32:16;14.27;;;4.38;;
42200;SDS011;27869;51.442;7.540;2023-03-01T10:34:45;14.52;;;4.75;;
42200;SDS011;27869;51.442;7.540;2023-03-01T10:37:14;12.40;;;4.55;;
42200;SDS011;27869;51.442;7.540;2023-03-01T10:39:56;13.35;;;4.35;;
42200;SDS011;27869;51.442;7.540;2023-03-01T10:42:28;14.45;;;4.97;;
42200;SDS011;27869;51.442;7.540;2023-03-01T10:44:56;12.13;;;4.13;;
42200;SDS011;27869;51.442;7.540;2023-03-01T10:47:24;15.48;;;4.72;;
42200;SDS011;27869;51.442;7.540;2023-03-01T10:49:55;13.02;;;4.75;;
42200;SDS011;27869;51.442;7.540;2023-03-01T10:52:25;12.52;;;4.47;;
42200;SDS011;27869;51.442;7.540;2023-03-01T10:54:56;14.50;;;4.85;;
42200;SDS011;27869;51.442;7.540;2023-03-01T10:57:28;13.43;;;5.00;;
42200;SDS011;27869;51.442;7.540;2023-03-01T11:00:15;16.08;;;4.68;;
42200;SDS011;27869;51.442;7.540;2023-03-01T11:02:49;15.25;;;4.40;;
42200;SDS011;27869;51.442;7.540;2023-03-01T11:05:21;14.52;;;4.38;;
42200;SDS011;27869;51.442;7.540;2023-03-01T11:07:53;13.50;;;4.55;;
42200;SDS011;27869;51.442;7.540;2023-03-01T11:10:22;15.18;;;4.95;;
42200;SDS011;27869;51.442;7.540;2023-03-01T11:12:52;14.50;;;4.68;;
42200;SDS011;27869;51.442;7.540;2023-03-01T11:15:24;13.20;;;4.45;;
42200;SDS011;27869;51.442;7.540;2023-03-01T11:17:52;19.17;;;4.90;;
42200;SDS011;27869;51.442;7.540;2023-03-01T11:20:25;13.63;;;4.57;;
42200;SDS011;27869;51.442;7.540;2023-03-01T11:22:55;13.48;;;4.88;;
42200;SDS011;27869;51.442;7.540;2023-03-01T11:27:52;12.57;;;3.70;;
42200;SDS011;27869;51.442;7.540;2023-03-01T11:30:22;13.68;;;4.57;;
42200;SDS011;27869;51.442;7.540;2023-03-01T11:32:54;12.65;;;4.30;;
42200;SDS011;27869;51.442;7.540;2023-03-01T11:35:30;14.00;;;4.60;;
42200;SDS011;27869;51.442;7.540;2023-03-01T11:38:03;14.95;;;4.72;;
42200;SDS011;27869;51.442;7.540;2023-03-01T11:40:42;14.05;;;4.55;;
42200;SDS011;27869;51.442;7.540;2023-03-01T11:43:15;13.13;;;4.93;;
42200;SDS011;27869;51.442;7.540;2023-03-01T11:45:52;15.65;;;4.80;;
42200;SDS011;27869;51.442;7.540;2023-03-01T11:48:34;16.15;;;5.00;;
42200;SDS011;27869;51.442;7.540;2023-03-01T11:51:15;12.27;;;4.50;;
42200;SDS011;27869;51.442;7.540;2023-03-01T11:53:50;17.10;;;4.93;;
42200;SDS011;27869;51.442;7.540;2023-03-01T11:56:28;15.20;;;5.13;;
42200;SDS011;27869;51.442;7.540;2023-03-01T12:02:25;13.07;;;4.43;;
42200;SDS011;27869;51.442;7.540;2023-03-01T12:05:17;17.58;;;4.95;;
42200;SDS011;27869;51.442;7.540;2023-03-01T12:08:06;13.32;;;4.65;;
42200;SDS011;27869;51.442;7.540;2023-03-01T12:10:42;14.73;;;4.65;;
42200;SDS011;27869;51.442;7.540;2023-03-01T12:16:30;13.07;;;4.32;;
42200;SDS011;27869;51.442;7.540;2023-03-01T12:19:08;14.93;;;4.72;;
42200;SDS011;27869;51.442;7.540;2023-03-01T12:22:01;14.27;;;5.05;;
42200;SDS011;27869;51.442;7.540;2023-03-01T12:24:47;15.77;;;5.25;;
42200;SDS011;27869;51.442;7.540;2023-03-01T12:27:32;13.40;;;4.72;;
42200;SDS011;27869;51.442;7.540;2023-03-01T12:30:17;14.00;;;4.50;;
42200;SDS011;27869;51.442;7.540;2023-03-01T12:32:54;15.48;;;4.82;;
42200;SDS011;27869;51.442;7.540;2023-03-01T12:38:48;16.33;;;4.78;;
42200;SDS011;27869;51.442;7.540;2023-03-01T12:41:33;17.40;;;4.90;;
42200;SDS011;27869;51.442;7.540;2023-03-01T12:44:15;14.40;;;4.65;;
42200;SDS011;27869;51.442;7.540;2023-03-01T12:47:02;17.02;;;4.97;;
42200;SDS011;27869;51.442;7.540;2023-03-01T12:49:38;13.85;;;4.78;;
42200;SDS011;27869;51.442;7.540;2023-03-01T12:52:10;15.20;;;5.47;;
42200;SDS011;27869;51.442;7.540;2023-03-01T12:54:40;14.52;;;5.25;;
42200;SDS011;27869;51.442;7.540;2023-03-01T12:57:14;16.98;;;5.18;;
42200;SDS011;27869;51.442;7.540;2023-03-01T12:59:46;14.07;;;4.95;;
42200;SDS011;27869;51.442;7.540;2023-03-01T13:02:22;14.52;;;4.82;;
42200;SDS011;27869;51.442;7.540;2023-03-01T13:05:06;13.77;;;4.35;;
42200;SDS011;27869;51.442;7.540;2023-03-01T13:07:49;14.38;;;4.90;;
42200;SDS011;27869;51.442;7.540;2023-03-01T13:10:22;15.27;;;5.07;;
42200;SDS011;27869;51.442;7.540;2023-03-01T13:13:01;15.25;;;5.15;;
42200;SDS011;27869;51.442;7.540;2023-03-01T13:15:37;15.07;;;4.70;;
42200;SDS011;27869;51.442;7.540;2023-03-01T13:18:27;14.02;;;5.03;;
42200;SDS011;27869;51.442;7.540;2023-03-01T13:20:59;13.20;;;4.65;;
42200;SDS011;27869;51.442;7.540;2023-03-01T13:23:29;13.75;;;4.68;;
42200;SDS011;27869;51.442;7.540;2023-03-01T13:26:03;15.43;;;5.05;;
42200;SDS011;27869;51.442;7.540;2023-03-01T13:28:47;12.73;;;4.28;;
42200;SDS011;27869;51.442;7.540;2023-03-01T13:37:20;14.70;;;4.82;;
42200;SDS011;27869;51.442;7.540;2023-03-01T13:39:49;12.95;;;4.38;;
42200;SDS011;27869;51.442;7.540;2023-03-01T13:45:18;12.07;;;4.32;;
42200;SDS011;27869;51.442;7.540;2023-03-01T13:47:49;13.38;;;4.30;;
42200;SDS011;27869;51.442;7.540;2023-03-01T13:50:21;12.65;;;3.97;;
42200;SDS011;27869;51.442;7.540;2023-03-01T13:52:52;13.35;;;4.57;;
42200;SDS011;27869;51.442;7.540;2023-03-01T13:55:24;14.60;;;4.53;;
42200;SDS011;27869;51.442;7.540;2023-03-01T13:57:56;12.15;;;4.05;;
42200;SDS011;27869;51.442;7.540;2023-03-01T14:00:29;12.57;;;4.25;;
42200;SDS011;27869;51.442;7.540;2023-03-01T14:03:11;15.13;;;4.63;;
42200;SDS011;27869;51.442;7.540;2023-03-01T14:05:40;15.60;;;4.70;;
42200;SDS011;27869;51.442;7.540;2023-03-01T14:08:18;13.15;;;4.05;;
42200;SDS011;27869;51.442;7.540;2023-03-01T14:10:58;12.45;;;3.80;;
42200;SDS011;27869;51.442;7.540;2023-03-01T14:13:46;14.63;;;4.22;;
42200;SDS011;27869;51.442;7.540;2023-03-01T14:16:25;15.27;;;4.05;;
42200;SDS011;27869;51.442;7.540;2023-03-01T14:19:02;13.85;;;4.38;;
42200;SDS011;27869;51.442;7.540;2023-03-01T14:21:39;13.27;;;4.03;;
42200;SDS011;27869;51.442;7.540;2023-03-01T14:24:13;12.52;;;3.92;;
42200;SDS011;27869;51.442;7.540;2023-03-01T14:26:43;14.15;;;4.40;;
42200;SDS011;27869;51.442;7.540;2023-03-01T14:29:23;17.35;;;4.32;;
42200;SDS011;27869;51.442;7.540;2023-03-01T14:31:52;12.40;;;4.10;;
42200;SDS011;27869;51.442;7.540;2023-03-01T14:34:24;12.32;;;4.35;;
42200;SDS011;27869;51.442;7.540;2023-03-01T14:36:51;14.63;;;4.13;;
42200;SDS011;27869;51.442;7.540;2023-03-01T14:39:19;15.48;;;4.15;;
42200;SDS011;27869;51.442;7.540;2023-03-01T14:41:50;13.15;;;3.92;;
42200;SDS011;27869;51.442;7.540;2023-03-01T14:44:19;13.02;;;4.00;;
42200;SDS011;27869;51.442;7.540;2023-03-01T14:46:53;14.70;;;3.80;;
42200;SDS011;27869;51.442;7.540;2023-03-01T14:49:22;13.07;;;3.92;;
42200;SDS011;27869;51.442;7.540;2023-03-01T14:51:53;15.73;;;3.90;;
42200;SDS011;27869;51.442;7.540;2023-03-01T14:54:25;11.90;;;3.90;;
42200;SDS011;27869;51.442;7.540;2023-03-01T14:59:25;11.05;;;3.60;;
42200;SDS011;27869;51.442;7.540;2023-03-01T15:01:55;14.05;;;4.13;;
42200;SDS011;27869;51.442;7.540;2023-03-01T15:04:24;14.27;;;3.85;;
42200;SDS011;27869;51.442;7.540;2023-03-01T15:06:53;14.70;;;4.20;;
42200;SDS011;27869;51.442;7.540;2023-03-01T15:09:21;14.40;;;4.53;;
42200;SDS011;27869;51.442;7.540;2023-03-01T15:11:49;12.88;;;3.88;;
42200;SDS011;27869;51.442;7.540;2023-03-01T15:14:25;13.88;;;3.97;;
42200;SDS011;27869;51.442;7.540;2023-03-01T15:16:54;14.18;;;4.07;;
42200;SDS011;27869;51.442;7.540;2023-03-01T15:19:22;12.85;;;4.22;;
42200;SDS011;27869;51.442;7.540;2023-03-01T15:21:54;13.10;;;4.25;;
42200;SDS011;27869;51.442;7.540;2023-03-01T15:24:23;12.35;;;3.80;;